createdAt,value
2018-05-26T00:01:39.624Z,16.77
2018-05-26T00:04:14.122Z,12.97
2018-05-26T00:06:48.472Z,12.63
2018-05-26T00:09:22.820Z,13.90
2018-05-26T00:11:57.277Z,16.63
2018-05-26T00:14:32.605Z,14.57
2018-05-26T00:17:06.902Z,15.17
2018-05-26T00:19:41.240Z,15.23
2018-05-26T00:22:15.660Z,13.93
2018-05-26T00:24:50.184Z,15.77
2018-05-26T00:27:24.677Z,13.87
2018-05-26T00:29:59.163Z,17.17
2018-05-26T00:32:34.369Z,14.20
2018-05-26T00:35:08.810Z,13.83
2018-05-26T00:37:43.315Z,13.67
2018-05-26T00:40:17.918Z,13.07
2018-05-26T00:42:52.354Z,14.07
2018-05-26T00:45:26.630Z,13.67
2018-05-26T00:48:00.956Z,14.90
2018-05-26T00:50:35.394Z,13.70
2018-05-26T00:53:09.840Z,13.77
2018-05-26T00:55:44.173Z,16.73
2018-05-26T00:58:18.758Z,18.83
2018-05-26T01:00:53.096Z,16.07
2018-05-26T01:03:27.625Z,14.67
2018-05-26T01:06:01.901Z,14.80
2018-05-26T01:08:36.342Z,15.50
2018-05-26T01:11:11.474Z,15.40
2018-05-26T01:13:45.775Z,16.63
2018-05-26T01:16:20.098Z,15.83
2018-05-26T01:18:54.404Z,16.10
2018-05-26T01:21:28.905Z,17.10
2018-05-26T01:24:03.615Z,15.60
2018-05-26T01:26:37.884Z,15.90
2018-05-26T01:29:12.176Z,16.10
2018-05-26T01:31:46.764Z,17.80
2018-05-26T01:34:21.162Z,17.17
2018-05-26T01:36:55.503Z,18.33
2018-05-26T01:39:29.853Z,16.40
2018-05-26T01:42:04.260Z,17.50
2018-05-26T01:44:38.640Z,15.97
2018-05-26T01:47:13.078Z,18.90
2018-05-26T01:49:47.617Z,18.43
2018-05-26T01:52:22.024Z,17.43
2018-05-26T01:54:56.551Z,20.60
2018-05-26T01:57:30.974Z,17.00
2018-05-26T02:00:05.313Z,20.93
2018-05-26T02:02:39.923Z,18.33
2018-05-26T02:05:14.261Z,17.70
2018-05-26T02:07:48.693Z,17.27
2018-05-26T02:10:23.158Z,17.90
2018-05-26T02:12:57.553Z,18.83
2018-05-26T02:15:32.124Z,16.97
2018-05-26T02:18:06.556Z,17.17
2018-05-26T02:20:41.064Z,17.03
2018-05-26T02:23:15.386Z,18.40
2018-05-26T02:25:51.432Z,22.03
2018-05-26T02:28:25.965Z,20.37
2018-05-26T02:31:00.365Z,18.77
2018-05-26T02:33:34.803Z,18.53
2018-05-26T02:36:09.101Z,17.97
2018-05-26T02:38:43.380Z,15.50
2018-05-26T02:41:17.963Z,14.73
2018-05-26T02:43:52.437Z,17.33
2018-05-26T02:46:27.009Z,17.00
2018-05-26T02:49:01.433Z,19.23
2018-05-26T02:51:35.854Z,16.40
2018-05-26T02:54:10.364Z,16.97
2018-05-26T02:56:44.686Z,19.00
2018-05-26T02:59:19.116Z,15.63
2018-05-26T03:01:53.427Z,18.53
2018-05-26T03:04:33.287Z,14.43
2018-05-26T03:07:14.970Z,15.57
2018-05-26T03:09:55.090Z,15.03
2018-05-26T03:12:35.104Z,14.83
2018-05-26T03:15:09.804Z,14.20
2018-05-26T03:17:48.789Z,14.97
2018-05-26T03:20:23.157Z,16.90
2018-05-26T03:22:57.772Z,13.50
2018-05-26T03:25:32.300Z,14.07
2018-05-26T03:28:06.804Z,14.83
2018-05-26T03:30:41.264Z,12.57
2018-05-26T03:33:15.787Z,12.40
2018-05-26T03:35:50.126Z,15.40
2018-05-26T03:38:24.696Z,14.20
2018-05-26T03:40:59.232Z,11.77
2018-05-26T03:43:34.457Z,17.93
2018-05-26T03:46:08.903Z,11.23
2018-05-26T03:48:44.141Z,10.93
2018-05-26T03:51:19.169Z,12.13
2018-05-26T03:53:53.688Z,12.77
2018-05-26T03:59:46.647Z,13.90
2018-05-26T04:02:21.296Z,13.43
2018-05-26T04:04:55.807Z,13.17
2018-05-26T04:07:30.125Z,10.67
2018-05-26T04:10:04.569Z,10.90
2018-05-26T04:12:38.956Z,10.70
2018-05-26T04:15:13.380Z,13.77
2018-05-26T04:17:47.713Z,12.17
2018-05-26T04:20:22.241Z,11.20
2018-05-26T04:22:56.677Z,10.60
2018-05-26T04:25:31.877Z,10.93
2018-05-26T04:28:07.416Z,11.43
2018-05-26T04:30:41.787Z,14.13
2018-05-26T04:33:16.181Z,11.63
2018-05-26T04:35:50.814Z,11.97
2018-05-26T04:38:25.287Z,12.17
2018-05-26T04:40:59.633Z,12.50
2018-05-26T04:43:33.946Z,11.63
2018-05-26T04:46:08.260Z,13.40
2018-05-26T04:48:42.622Z,10.53
2018-05-26T04:51:17.015Z,12.77
2018-05-26T04:53:51.360Z,11.33
2018-05-26T04:56:25.630Z,11.43
2018-05-26T04:59:00.080Z,11.50
2018-05-26T05:01:34.560Z,15.20
2018-05-26T05:04:09.040Z,12.77
2018-05-26T05:06:43.556Z,12.93
2018-05-26T05:09:17.856Z,11.13
2018-05-26T05:11:52.293Z,11.27
2018-05-26T05:14:26.940Z,13.43
2018-05-26T05:17:01.216Z,14.03
2018-05-26T05:19:35.756Z,12.17
2018-05-26T05:22:10.193Z,12.93
2018-05-26T05:24:44.583Z,12.40
2018-05-26T05:27:19.042Z,11.50
2018-05-26T05:29:53.491Z,12.57
2018-05-26T05:32:27.850Z,15.13
2018-05-26T05:35:03.110Z,14.27
2018-05-26T05:37:38.280Z,15.13
2018-05-26T05:40:12.532Z,12.33
2018-05-26T05:42:46.958Z,15.10
2018-05-26T05:45:21.320Z,12.10
2018-05-26T05:47:55.580Z,13.03
2018-05-26T05:50:30.052Z,15.13
2018-05-26T05:53:05.257Z,12.27
2018-05-26T05:55:41.112Z,14.97
2018-05-26T05:58:15.605Z,14.03
2018-05-26T06:00:50.091Z,12.93
2018-05-26T06:03:24.589Z,14.23
2018-05-26T06:05:58.907Z,15.17
2018-05-26T06:08:33.364Z,12.37
2018-05-26T06:11:07.833Z,18.07
2018-05-26T06:13:42.986Z,14.67
2018-05-26T06:16:17.281Z,13.20
2018-05-26T06:18:51.577Z,14.93
2018-05-26T06:21:25.958Z,13.67
2018-05-26T06:24:00.284Z,14.53
2018-05-26T06:26:34.799Z,14.03
2018-05-26T06:29:09.101Z,16.73
2018-05-26T06:31:43.688Z,15.73
2018-05-26T06:34:18.148Z,16.87
2018-05-26T06:36:52.412Z,15.23
2018-05-26T06:39:26.688Z,14.50
2018-05-26T06:42:01.124Z,15.37
2018-05-26T06:44:35.641Z,16.43
2018-05-26T06:47:10.055Z,17.40
2018-05-26T06:49:44.324Z,16.07
2018-05-26T06:52:18.736Z,15.10
2018-05-26T06:54:53.300Z,14.67
2018-05-26T06:57:27.730Z,17.30
2018-05-26T07:00:02.030Z,15.00
2018-05-26T07:02:36.453Z,15.37
2018-05-26T07:05:11.485Z,15.07
2018-05-26T07:07:45.933Z,15.03
2018-05-26T07:10:21.180Z,14.50
2018-05-26T07:12:55.801Z,15.23
2018-05-26T07:15:30.324Z,17.23
2018-05-26T07:18:04.736Z,14.70
2018-05-26T07:20:39.962Z,15.23
2018-05-26T07:23:14.337Z,16.20
2018-05-26T07:25:48.703Z,15.13
2018-05-26T07:28:23.976Z,13.93
2018-05-26T07:30:58.462Z,14.33
2018-05-26T07:33:32.749Z,9.57
2018-05-26T07:36:07.216Z,14.27
2018-05-26T07:38:41.746Z,14.70
2018-05-26T07:41:16.189Z,15.37
2018-05-26T07:43:50.772Z,12.47
2018-05-26T07:46:25.919Z,15.23
2018-05-26T07:49:00.358Z,15.57
2018-05-26T07:51:34.979Z,13.27
2018-05-26T07:54:09.385Z,13.33
2018-05-26T07:56:43.720Z,15.87
2018-05-26T07:59:18.008Z,23.20
2018-05-26T08:01:52.448Z,13.50
2018-05-26T08:04:26.833Z,14.33
2018-05-26T08:07:01.297Z,14.13
2018-05-26T08:09:35.770Z,12.07
2018-05-26T08:12:11.756Z,15.63
2018-05-26T08:14:46.308Z,13.50
2018-05-26T08:17:20.692Z,9.53
2018-05-26T08:19:55.042Z,8.73
2018-05-26T08:22:29.472Z,9.47
2018-05-26T08:25:03.952Z,6.73
2018-05-26T08:27:38.313Z,7.77
2018-05-26T08:30:12.831Z,8.10
2018-05-26T08:32:47.206Z,7.57
2018-05-26T08:35:21.524Z,8.27
2018-05-26T08:37:55.826Z,5.83
2018-05-26T08:40:30.306Z,6.27
2018-05-26T08:43:04.709Z,9.40
2018-05-26T08:45:39.050Z,8.87
2018-05-26T08:48:13.445Z,9.57
2018-05-26T08:50:47.696Z,7.27
2018-05-26T08:53:22.084Z,6.10
2018-05-26T09:05:15.711Z,6.33
2018-05-26T09:07:50.121Z,5.47
2018-05-26T09:10:24.377Z,5.53
2018-05-26T09:12:58.692Z,6.23
2018-05-26T09:15:33.699Z,5.40
2018-05-26T09:18:08.849Z,5.30
2018-05-26T09:20:44.084Z,5.70
2018-05-26T09:23:18.391Z,5.57
2018-05-26T09:25:52.816Z,5.73
2018-05-26T09:28:27.138Z,15.10
2018-05-26T09:31:01.536Z,9.97
2018-05-26T09:33:35.880Z,12.60
2018-05-26T09:36:10.298Z,14.53
2018-05-26T09:38:44.840Z,13.60
2018-05-26T09:41:19.140Z,9.83
2018-05-26T09:43:53.681Z,12.87
2018-05-26T09:46:28.063Z,13.17
2018-05-26T09:49:03.129Z,5.97
2018-05-26T09:51:37.520Z,12.07
2018-05-26T09:54:12.060Z,12.20
2018-05-26T09:56:46.542Z,9.17
2018-05-26T09:59:21.253Z,6.60
2018-05-26T10:01:55.575Z,9.97
2018-05-26T10:04:30.673Z,5.60
2018-05-26T10:07:05.072Z,6.23
2018-05-26T10:09:39.392Z,6.63
2018-05-26T10:12:13.720Z,5.10
2018-05-26T10:14:49.612Z,10.63
2018-05-26T10:17:24.002Z,8.33
2018-05-26T10:19:58.582Z,13.33
2018-05-26T10:22:32.905Z,7.27
2018-05-26T10:25:07.305Z,6.17
2018-05-26T10:27:41.612Z,9.73
2018-05-26T10:30:16.108Z,7.43
2018-05-26T10:32:50.476Z,8.67
2018-05-26T10:35:24.949Z,5.07
2018-05-26T10:37:59.382Z,11.87
2018-05-26T10:40:34.499Z,9.70
2018-05-26T10:43:08.921Z,9.53
2018-05-26T10:45:49.264Z,8.03
2018-05-26T10:48:23.630Z,4.80
2018-05-26T10:50:57.965Z,9.40
2018-05-26T10:53:33.157Z,8.10
2018-05-26T10:56:08.222Z,6.57
2018-05-26T10:58:42.630Z,5.90
2018-05-26T11:01:17.069Z,7.97
2018-05-26T11:03:51.464Z,5.50
2018-05-26T11:06:25.875Z,6.90
2018-05-26T11:09:00.447Z,6.47
2018-05-26T11:11:34.784Z,7.17
2018-05-26T11:14:09.087Z,8.90
2018-05-26T11:16:44.389Z,10.57
2018-05-26T11:19:18.888Z,10.23
2018-05-26T11:21:53.933Z,9.30
2018-05-26T11:24:28.332Z,6.13
2018-05-26T11:27:02.702Z,6.07
2018-05-26T11:29:38.790Z,5.70
2018-05-26T11:32:13.072Z,7.53
2018-05-26T11:34:47.607Z,10.13
2018-05-26T11:37:22.083Z,10.07
2018-05-26T11:39:56.456Z,10.97
2018-05-26T11:42:30.804Z,5.50
2018-05-26T11:45:05.292Z,26.33
2018-05-26T11:47:39.815Z,6.00
2018-05-26T11:50:14.410Z,9.87
2018-05-26T11:52:48.688Z,7.03
2018-05-26T11:55:23.175Z,9.93
2018-05-26T11:57:57.493Z,7.00
2018-05-26T12:00:32.102Z,8.43
2018-05-26T12:03:06.828Z,9.40
2018-05-26T12:05:41.190Z,5.93
2018-05-26T12:08:15.753Z,3.70
2018-05-26T12:10:50.827Z,9.07
2018-05-26T12:13:25.317Z,5.87
2018-05-26T12:15:59.968Z,10.73
2018-05-26T12:18:34.374Z,4.83
2018-05-26T12:21:09.102Z,7.27
2018-05-26T12:23:43.371Z,6.30
2018-05-26T12:26:17.844Z,5.37
2018-05-26T12:28:52.373Z,7.77
2018-05-26T12:31:26.848Z,5.53
2018-05-26T12:34:01.240Z,5.50
2018-05-26T12:36:35.506Z,4.60
2018-05-26T12:39:09.776Z,6.13
2018-05-26T12:41:44.057Z,5.90
2018-05-26T12:44:18.496Z,7.70
2018-05-26T12:46:54.037Z,9.17
2018-05-26T12:49:28.363Z,6.53
2018-05-26T12:52:02.892Z,7.80
2018-05-26T12:54:37.304Z,6.63
2018-05-26T12:57:11.700Z,6.60
2018-05-26T12:59:46.282Z,6.93
2018-05-26T13:02:20.681Z,6.20
2018-05-26T13:04:55.002Z,5.47
2018-05-26T13:07:29.503Z,6.70
2018-05-26T13:10:03.813Z,5.13
2018-05-26T13:12:38.259Z,10.73
2018-05-26T13:15:12.889Z,5.03
2018-05-26T13:17:47.196Z,4.90
2018-05-26T13:20:21.812Z,6.77
2018-05-26T13:22:56.069Z,6.17
2018-05-26T13:25:30.648Z,5.87
2018-05-26T13:28:05.087Z,8.60
2018-05-26T13:30:39.355Z,8.60
2018-05-26T13:33:13.902Z,6.20
2018-05-26T13:35:48.553Z,5.93
2018-05-26T13:38:23.768Z,6.13
2018-05-26T13:40:58.125Z,7.50
2018-05-26T13:43:32.410Z,5.03
2018-05-26T13:46:06.713Z,4.80
2018-05-26T13:48:41.148Z,4.40
2018-05-26T13:51:15.460Z,6.13
2018-05-26T13:53:50.017Z,4.80
2018-05-26T13:56:24.630Z,6.20
2018-05-26T13:58:58.907Z,4.67
2018-05-26T14:01:34.037Z,4.43
2018-05-26T14:04:08.524Z,4.30
2018-05-26T14:06:42.879Z,5.00
2018-05-26T14:09:17.420Z,6.80
2018-05-26T14:11:53.264Z,6.43
2018-05-26T14:14:28.540Z,4.90
2018-05-26T14:17:02.838Z,3.97
2018-05-26T14:19:38.592Z,5.73
2018-05-26T14:22:14.433Z,5.40
2018-05-26T14:24:48.814Z,6.83
2018-05-26T14:27:23.865Z,6.97
2018-05-26T14:29:58.442Z,10.70
2018-05-26T14:32:32.688Z,4.83
2018-05-26T14:35:06.989Z,6.50
2018-05-26T14:37:41.396Z,4.70
2018-05-26T14:40:17.350Z,6.10
2018-05-26T14:42:51.664Z,5.13
2018-05-26T14:45:25.960Z,5.37
2018-05-26T14:48:00.389Z,4.57
2018-05-26T14:50:34.753Z,4.77
2018-05-26T14:53:09.932Z,8.70
2018-05-26T14:55:44.452Z,4.03
2018-05-26T14:58:18.919Z,5.87
2018-05-26T15:00:53.236Z,6.70
2018-05-26T15:03:27.632Z,6.20
2018-05-26T15:06:02.824Z,3.83
2018-05-26T15:08:37.172Z,6.83
2018-05-26T15:11:11.694Z,4.10
2018-05-26T15:13:46.016Z,6.90
2018-05-26T15:16:20.435Z,4.63
2018-05-26T15:18:54.969Z,4.70
2018-05-26T15:21:29.281Z,4.30
2018-05-26T15:24:03.699Z,5.40
2018-05-26T15:26:38.113Z,5.70
2018-05-26T15:29:12.581Z,5.53
2018-05-26T15:31:46.917Z,4.87
2018-05-26T15:34:21.385Z,6.43
2018-05-26T15:36:55.710Z,5.47
2018-05-26T15:39:30.000Z,4.13
2018-05-26T15:42:04.258Z,5.27
2018-05-26T15:44:38.561Z,4.90
2018-05-26T15:47:12.985Z,4.37
2018-05-26T15:49:47.341Z,5.23
2018-05-26T15:52:22.394Z,5.17
2018-05-26T15:54:56.829Z,6.37
2018-05-26T15:57:31.376Z,4.70
2018-05-26T16:00:05.793Z,5.77
2018-05-26T16:02:40.265Z,5.60
2018-05-26T16:05:14.513Z,5.23
2018-05-26T16:07:49.153Z,5.63
2018-05-26T16:10:23.458Z,6.27
2018-05-26T16:12:57.726Z,7.60
2018-05-26T16:15:32.112Z,7.10
2018-05-26T16:18:06.533Z,4.23
2018-05-26T16:20:40.838Z,4.57
2018-05-26T16:23:15.274Z,7.78
2018-05-26T16:25:49.592Z,5.93
2018-05-26T16:28:24.829Z,5.10
2018-05-26T16:30:59.278Z,5.47
2018-05-26T16:33:33.487Z,6.87
2018-05-26T16:36:08.684Z,6.07
2018-05-26T16:38:43.017Z,5.73
2018-05-26T16:41:17.344Z,7.57
2018-05-26T16:43:52.069Z,5.77
2018-05-26T16:46:26.500Z,5.37
2018-05-26T16:49:00.809Z,5.33
2018-05-26T16:51:35.140Z,8.03
2018-05-26T16:54:09.590Z,5.93
2018-05-26T16:56:44.048Z,7.57
2018-05-26T16:59:18.381Z,5.97
2018-05-26T17:01:52.892Z,4.20
2018-05-26T17:04:27.236Z,9.70
2018-05-26T17:07:01.513Z,4.77
2018-05-26T17:09:35.852Z,4.63
2018-05-26T17:12:10.288Z,5.37
2018-05-26T17:14:44.811Z,6.80
2018-05-26T17:17:19.071Z,5.97
2018-05-26T17:19:53.396Z,6.33
2018-05-26T17:22:27.860Z,6.53
2018-05-26T17:25:02.159Z,5.20
2018-05-26T17:27:36.607Z,4.57
2018-05-26T17:30:10.914Z,6.47
2018-05-26T17:32:45.341Z,6.37
2018-05-26T17:35:19.658Z,5.90
2018-05-26T17:37:53.945Z,4.60
2018-05-26T17:40:28.482Z,7.63
2018-05-26T17:43:02.897Z,5.77
2018-05-26T17:45:37.212Z,6.73
2018-05-26T17:48:11.500Z,6.63
2018-05-26T17:50:45.796Z,5.70
2018-05-26T17:53:20.075Z,8.10
2018-05-26T17:55:54.352Z,6.53
2018-05-26T17:58:28.841Z,4.57
2018-05-26T18:01:03.133Z,5.03
2018-05-26T18:03:37.508Z,7.33
2018-05-26T18:06:11.845Z,9.00
2018-05-26T18:08:46.297Z,6.27
2018-05-26T18:11:20.664Z,7.90
2018-05-26T18:13:55.083Z,6.97
2018-05-26T18:16:29.440Z,5.23
2018-05-26T18:19:03.761Z,4.70
2018-05-26T18:21:38.312Z,7.10
2018-05-26T18:24:12.596Z,5.23
2018-05-26T18:26:46.997Z,7.37
2018-05-26T18:29:21.284Z,8.63
2018-05-26T18:31:56.612Z,12.03
2018-05-26T18:34:30.900Z,5.27
2018-05-26T18:37:05.308Z,6.73
2018-05-26T18:39:39.547Z,5.13
2018-05-26T18:42:13.897Z,6.40
2018-05-26T18:44:49.001Z,6.37
2018-05-26T18:47:24.964Z,6.83
2018-05-26T18:49:59.948Z,6.27
2018-05-26T18:52:34.433Z,6.07
2018-05-26T18:55:08.796Z,6.40
2018-05-26T18:57:43.203Z,4.73
2018-05-26T19:00:17.510Z,11.37
2018-05-26T19:02:52.017Z,4.90
2018-05-26T19:05:26.363Z,5.00
2018-05-26T19:08:00.605Z,8.63
2018-05-26T19:10:34.990Z,4.57
2018-05-26T19:13:09.286Z,7.53
2018-05-26T19:15:44.555Z,5.03
2018-05-26T19:18:18.810Z,10.07
2018-05-26T19:20:53.094Z,11.67
2018-05-26T19:23:27.500Z,9.77
2018-05-26T19:26:02.047Z,7.20
2018-05-26T19:28:36.518Z,7.93
2018-05-26T19:31:11.102Z,6.50
2018-05-26T19:33:46.161Z,4.43
2018-05-26T19:36:20.592Z,6.73
2018-05-26T19:38:55.077Z,5.93
2018-05-26T19:41:29.465Z,6.10
2018-05-26T19:44:03.792Z,7.53
2018-05-26T19:46:38.031Z,8.87
2018-05-26T19:49:12.516Z,8.57
2018-05-26T19:51:46.809Z,6.90
2018-05-26T19:54:21.175Z,7.20
2018-05-26T19:56:56.503Z,7.57
2018-05-26T19:59:30.908Z,10.17
2018-05-26T20:02:05.321Z,5.57
2018-05-26T20:04:39.788Z,5.33
2018-05-26T20:07:14.192Z,6.57
2018-05-26T20:09:48.471Z,7.17
2018-05-26T20:12:22.906Z,4.90
2018-05-26T20:14:57.196Z,5.60
2018-05-26T20:17:31.500Z,8.37
2018-05-26T20:20:05.945Z,7.30
2018-05-26T20:22:40.469Z,5.20
2018-05-26T20:25:15.493Z,9.20
2018-05-26T20:27:50.589Z,5.83
2018-05-26T20:30:25.081Z,7.17
2018-05-26T20:32:59.463Z,6.40
2018-05-26T20:35:35.234Z,8.60
2018-05-26T20:38:09.574Z,5.97
2018-05-26T20:40:43.998Z,5.33
2018-05-26T20:43:18.488Z,5.40
2018-05-26T20:45:52.832Z,7.17
2018-05-26T20:48:27.138Z,8.13
2018-05-26T20:51:01.571Z,6.40
2018-05-26T20:53:35.886Z,5.73
2018-05-26T20:56:10.277Z,6.13
2018-05-26T20:58:44.571Z,6.23
2018-05-26T21:01:19.051Z,6.73
2018-05-26T21:03:53.451Z,8.23
2018-05-26T21:06:27.992Z,5.73
2018-05-26T21:09:02.269Z,8.07
2018-05-26T21:11:36.732Z,12.97
2018-05-26T21:14:11.137Z,5.40
2018-05-26T21:16:45.473Z,9.57
2018-05-26T21:19:19.905Z,5.23
2018-05-26T21:21:54.432Z,8.77
2018-05-26T21:24:28.704Z,9.27
2018-05-26T21:27:03.054Z,5.83
2018-05-26T21:29:37.583Z,8.50
2018-05-26T21:32:12.312Z,8.10
2018-05-26T21:34:46.827Z,7.00
2018-05-26T21:37:22.026Z,6.10
2018-05-26T21:39:56.448Z,7.93
2018-05-26T21:42:30.768Z,7.27
2018-05-26T21:45:05.186Z,7.23
2018-05-26T21:47:39.659Z,6.97
2018-05-26T21:50:13.936Z,5.97
2018-05-26T21:52:48.267Z,9.83
2018-05-26T21:55:22.685Z,7.60
2018-05-26T21:57:57.011Z,9.30
2018-05-26T22:00:31.301Z,8.23
2018-05-26T22:03:05.676Z,10.00
2018-05-26T22:05:40.076Z,8.27
2018-05-26T22:08:14.605Z,6.47
2018-05-26T22:10:49.026Z,7.67
2018-05-26T22:13:24.227Z,6.00
2018-05-26T22:15:58.663Z,9.00
2018-05-26T22:18:33.077Z,5.37
2018-05-26T22:21:07.531Z,6.80
2018-05-26T22:23:41.832Z,7.43
2018-05-26T22:26:16.269Z,5.43
2018-05-26T22:28:50.793Z,6.47
2018-05-26T22:31:25.209Z,6.37
2018-05-26T22:33:59.838Z,10.07
2018-05-26T22:36:34.212Z,9.83
2018-05-26T22:39:08.661Z,6.43
2018-05-26T22:41:42.998Z,7.53
2018-05-26T22:44:17.730Z,4.47
2018-05-26T22:46:52.020Z,9.43
2018-05-26T22:49:26.449Z,4.77
2018-05-26T22:52:00.942Z,7.43
2018-05-26T22:54:35.410Z,5.80
2018-05-26T22:57:09.661Z,5.53
2018-05-26T22:59:44.124Z,5.77
2018-05-26T23:02:19.261Z,6.40
2018-05-26T23:04:53.672Z,6.43
2018-05-26T23:07:28.054Z,6.93
2018-05-26T23:10:02.533Z,6.53
2018-05-26T23:12:36.840Z,5.13
2018-05-26T23:15:11.136Z,9.23
2018-05-26T23:17:45.460Z,5.37
2018-05-26T23:20:19.797Z,6.17
2018-05-26T23:22:54.168Z,8.97
2018-05-26T23:25:29.269Z,4.97
2018-05-26T23:28:04.395Z,5.30
2018-05-26T23:30:38.696Z,4.70
2018-05-26T23:33:13.049Z,5.07
2018-05-26T23:35:47.433Z,5.53
2018-05-26T23:38:22.471Z,5.33
2018-05-26T23:40:56.865Z,6.20
2018-05-26T23:43:31.344Z,6.83
2018-05-26T23:46:05.781Z,6.90
2018-05-26T23:48:40.869Z,6.87
2018-05-26T23:51:15.170Z,6.27
2018-05-26T23:53:49.625Z,7.50
2018-05-26T23:56:24.115Z,5.23
2018-05-26T23:58:58.431Z,6.80
